Time,TemperatureF,DewpointF,PressureIn,WindDirection,WindDirectionDegrees,WindSpeedMPH,WindSpeedGustMPH,Humidity,HourlyPrecipIn,Conditions,Clouds,dailyrainin,SoftwareType,DateUTC
2013-03-10 00:01:00,40.0,36.0,30.26,WSW,246,0.0,0.0,85,0.00,,,0.00,,2013-03-10 08:01:00,
2013-03-10 00:11:00,40.0,36.0,30.24,WSW,246,0.0,0.0,86,0.00,,,0.00,,2013-03-10 08:11:00,
2013-03-10 00:21:00,40.0,36.0,30.24,WSW,246,0.0,0.0,86,0.00,,,0.00,,2013-03-10 08:21:00,
2013-03-10 00:31:00,39.0,35.0,30.24,WSW,246,0.0,0.0,86,0.00,,,0.00,,2013-03-10 08:31:00,
2013-03-10 00:42:00,39.0,35.0,30.24,WSW,246,0.0,0.0,87,0.00,,,0.00,,2013-03-10 08:42:00,
2013-03-10 00:51:00,39.0,35.0,30.24,WSW,246,0.0,0.0,87,0.00,,,0.00,,2013-03-10 08:51:00,
2013-03-10 01:01:00,39.0,35.0,30.26,WSW,246,0.0,0.0,87,0.00,,,0.00,,2013-03-10 09:01:00,
2013-03-10 01:11:00,39.0,35.0,30.25,WSW,246,0.0,0.0,87,0.00,,,0.00,,2013-03-10 09:11:00,
2013-03-10 01:21:00,39.0,35.0,30.25,WSW,246,0.0,0.0,87,0.00,,,0.00,,2013-03-10 09:21:00,
2013-03-10 01:31:00,39.0,35.0,30.25,WSW,246,0.0,0.0,87,0.00,,,0.00,,2013-03-10 09:31:00,
2013-03-10 01:41:00,38.0,34.0,30.25,WSW,246,0.0,0.0,87,0.00,,,0.00,,2013-03-10 09:41:00,
2013-03-10 01:51:00,38.0,34.0,30.25,WSW,246,0.0,0.0,87,0.00,,,0.00,,2013-03-10 09:51:00,
2013-03-10 03:01:00,38.0,34.0,30.25,WSW,246,0.0,0.0,87,0.00,,,0.00,,2013-03-10 10:01:00,
2013-03-10 03:11:00,38.0,34.0,30.25,WSW,246,0.0,0.0,87,0.00,,,0.00,,2013-03-10 10:11:00,
2013-03-10 03:21:00,37.0,34.0,30.27,WSW,246,0.0,0.0,88,0.00,,,0.00,,2013-03-10 10:21:00,
2013-03-10 03:31:00,37.0,34.0,30.26,WSW,246,0.0,0.0,88,0.00,,,0.00,,2013-03-10 10:31:00,
2013-03-10 03:41:00,37.0,34.0,30.25,WSW,246,0.0,0.0,88,0.00,,,0.00,,2013-03-10 10:41:00,
2013-03-10 03:52:00,37.0,34.0,30.25,WSW,246,0.0,0.0,88,0.00,,,0.00,,2013-03-10 10:52:00,
2013-03-10 04:01:00,36.0,33.0,30.25,WSW,246,0.0,0.0,88,0.00,,,0.00,,2013-03-10 11:01:00,
2013-03-10 04:11:00,36.0,33.0,30.26,WSW,246,0.0,0.0,88,0.00,,,0.00,,2013-03-10 11:11:00,
2013-03-10 04:21:00,36.0,33.0,30.26,WSW,246,0.0,0.0,88,0.00,,,0.00,,2013-03-10 11:21:00,
2013-03-10 04:31:00,35.0,32.0,30.25,WSW,246,0.0,0.0,88,0.00,,,0.00,,2013-03-10 11:31:00,
2013-03-10 04:41:00,35.0,32.0,30.25,WSW,246,0.0,0.0,88,0.00,,,0.00,,2013-03-10 11:41:00,
2013-03-10 04:52:00,35.0,32.0,30.26,WSW,246,0.0,0.0,88,0.00,,,0.00,,2013-03-10 11:52:00,
2013-03-10 05:01:00,34.0,31.0,30.24,WSW,246,0.0,0.0,88,0.00,,,0.00,,2013-03-10 12:01:00,
2013-03-10 05:11:00,34.0,31.0,30.24,WSW,246,0.0,0.0,88,0.00,,,0.00,,2013-03-10 12:11:00,
2013-03-10 05:21:00,35.0,32.0,30.26,WSW,246,0.0,0.0,90,0.00,,,0.00,,2013-03-10 12:21:00,
2013-03-10 05:31:00,35.0,32.0,30.24,WSW,246,0.0,0.0,90,0.00,,,0.00,,2013-03-10 12:31:00,
2013-03-10 05:41:00,35.0,32.0,30.24,WSW,246,0.0,0.0,90,0.00,,,0.00,,2013-03-10 12:41:00,
2013-03-10 05:51:00,35.0,32.0,30.24,WSW,246,0.0,0.0,90,0.00,,,0.00,,2013-03-10 12:51:00,
2013-03-10 06:01:00,34.0,31.0,30.25,WSW,246,0.0,0.0,89,0.00,,,0.00,,2013-03-10 13:01:00,
2013-03-10 06:11:00,34.0,31.0,30.25,WSW,246,0.0,0.0,89,0.00,,,0.00,,2013-03-10 13:11:00,
2013-03-10 06:21:00,34.0,31.0,30.25,WSW,246,0.0,0.0,89,0.00,,,0.00,,2013-03-10 13:21:00,
2013-03-10 06:31:00,34.0,31.0,30.25,WSW,246,0.0,0.0,90,0.00,,,0.00,,2013-03-10 13:31:00,
2013-03-10 06:41:00,34.0,31.0,30.25,WSW,246,0.0,0.0,90,0.00,,,0.00,,2013-03-10 13:41:00,
2013-03-10 06:51:00,33.0,30.0,30.24,WSW,246,0.0,0.0,90,0.00,,,0.00,,2013-03-10 13:51:00,
2013-03-10 07:01:00,34.0,31.0,30.25,WSW,246,0.0,0.0,90,0.00,,,0.00,,2013-03-10 14:01:00,
2013-03-10 07:11:00,34.0,31.0,30.25,WSW,246,0.0,0.0,90,0.00,,,0.00,,2013-03-10 14:11:00,
2013-03-10 07:21:00,33.0,30.0,30.28,WSW,246,0.0,0.0,89,0.00,,,0.00,,2013-03-10 14:21:00,
2013-03-10 07:31:00,33.0,30.0,30.28,WSW,246,0.0,0.0,90,0.00,,,0.00,,2013-03-10 14:31:00,
2013-03-10 07:41:00,33.0,30.0,30.28,WSW,246,0.0,0.0,90,0.00,,,0.00,,2013-03-10 14:41:00,
2013-03-10 07:51:00,33.0,30.0,30.26,WSW,246,0.0,0.0,90,0.00,,,0.00,,2013-03-10 14:51:00,
2013-03-10 08:01:00,32.0,29.0,30.27,WSW,246,0.0,0.0,89,0.00,,,0.00,,2013-03-10 15:01:00,
2013-03-10 08:11:00,32.0,29.0,30.27,WSW,246,0.0,0.0,89,0.00,,,0.00,,2013-03-10 15:11:00,
2013-03-10 08:21:00,32.0,29.0,30.27,WSW,246,0.0,0.0,89,0.00,,,0.00,,2013-03-10 15:21:00,
2013-03-10 08:31:00,32.0,29.0,30.27,WSW,246,0.0,0.0,90,0.00,,,0.00,,2013-03-10 15:31:00,
2013-03-10 08:41:00,32.0,29.0,30.27,WSW,246,0.0,0.0,90,0.00,,,0.00,,2013-03-10 15:41:00,
2013-03-10 08:51:00,32.0,29.0,30.27,WSW,246,0.0,0.0,90,0.00,,,0.00,,2013-03-10 15:51:00,
2013-03-10 09:01:00,34.0,32.0,30.29,WSW,246,0.0,0.0,91,0.00,,,0.00,,2013-03-10 16:01:00,
2013-03-10 09:11:00,34.0,32.0,30.29,WSW,246,0.0,0.0,91,0.00,,,0.00,,2013-03-10 16:11:00,
2013-03-10 09:21:00,35.0,33.0,30.29,WSW,246,0.0,0.0,92,0.00,,,0.00,,2013-03-10 16:21:00,
2013-03-10 09:31:00,35.0,33.0,30.29,WSW,246,0.0,0.0,92,0.00,,,0.00,,2013-03-10 16:31:00,
2013-03-10 09:41:00,35.0,33.0,30.29,WSW,246,0.0,0.0,92,0.00,,,0.00,,2013-03-10 16:41:00,
2013-03-10 09:51:00,39.0,37.0,30.29,WSW,246,0.0,0.0,94,0.00,,,0.00,,2013-03-10 16:51:00,
2013-03-10 10:01:00,42.0,40.0,30.29,WSW,246,0.0,0.0,94,0.00,,,0.00,,2013-03-10 17:01:00,
2013-03-10 10:11:00,42.0,40.0,30.29,WSW,246,0.0,0.0,94,0.00,,,0.00,,2013-03-10 17:11:00,
2013-03-10 10:21:00,45.0,43.0,30.28,WSW,246,0.0,0.0,94,0.00,,,0.00,,2013-03-10 17:21:00,
2013-03-10 10:31:00,45.0,43.0,30.28,WSW,246,0.0,0.0,94,0.00,,,0.00,,2013-03-10 17:31:00,
2013-03-10 10:41:00,45.0,43.0,30.28,WSW,246,0.0,0.0,94,0.00,,,0.00,,2013-03-10 17:41:00,
2013-03-10 10:51:00,45.0,43.0,30.28,WSW,246,0.0,0.0,94,0.00,,,0.00,,2013-03-10 17:51:00,
2013-03-10 11:01:00,52.0,45.0,30.27,WSW,254,0.0,0.0,77,0.00,,,0.00,,2013-03-10 18:01:00,
2013-03-10 11:11:00,52.0,45.0,30.27,WSW,254,0.0,0.0,77,0.00,,,0.00,,2013-03-10 18:11:00,
2013-03-10 11:21:00,52.0,45.0,30.27,WSW,254,0.0,0.0,77,0.00,,,0.00,,2013-03-10 18:21:00,
2013-03-10 11:31:00,57.0,43.0,30.26,WSW,254,0.0,0.0,60,0.00,,,0.00,,2013-03-10 18:31:00,
2013-03-10 11:41:00,57.0,43.0,30.26,WSW,254,0.0,0.0,60,0.00,,,0.00,,2013-03-10 18:41:00,
2013-03-10 11:52:00,59.0,44.0,30.27,WSW,254,0.0,0.0,57,0.00,,,0.00,,2013-03-10 18:52:00,
2013-03-10 12:01:00,61.0,42.0,30.25,South,191,0.0,0.0,50,0.00,,,0.00,,2013-03-10 19:01:00,
2013-03-10 12:31:00,61.0,42.0,30.25,South,191,0.0,0.0,50,0.00,,,0.00,,2013-03-10 19:31:00,
2013-03-10 12:41:00,61.0,42.0,30.25,South,191,0.0,0.0,50,0.00,,,0.00,,2013-03-10 19:41:00,
2013-03-10 12:52:00,65.0,43.0,30.24,SSE,149,0.0,4.0,44,0.00,,,0.00,,2013-03-10 19:52:00,
2013-03-10 13:02:00,67.0,44.0,30.23,South,174,0.0,3.0,44,0.00,,,0.00,,2013-03-10 20:02:00,
2013-03-10 13:12:00,67.0,44.0,30.23,South,174,0.0,3.0,44,0.00,,,0.00,,2013-03-10 20:12:00,
2013-03-10 13:21:00,67.0,44.0,30.23,South,174,0.0,3.0,44,0.00,,,0.00,,2013-03-10 20:21:00,
2013-03-10 13:31:00,67.0,44.0,30.23,SE,131,2.0,5.0,43,0.00,,,0.00,,2013-03-10 20:31:00,
2013-03-10 13:42:00,67.0,44.0,30.23,SE,131,2.0,5.0,43,0.00,,,0.00,,2013-03-10 20:42:00,
2013-03-10 13:52:00,68.0,44.0,30.22,SE,136,1.0,3.0,42,0.00,,,0.00,,2013-03-10 20:52:00,
2013-03-10 14:02:00,68.0,40.0,30.22,SSE,157,2.0,5.0,36,0.00,,,0.00,,2013-03-10 21:02:00,
2013-03-10 14:11:00,68.0,40.0,30.22,SSE,157,2.0,5.0,36,0.00,,,0.00,,2013-03-10 21:11:00,
2013-03-10 14:22:00,69.0,45.0,30.21,SSE,157,1.0,4.0,42,0.00,,,0.00,,2013-03-10 21:22:00,
2013-03-10 14:31:00,70.0,45.0,30.21,WSW,258,0.0,6.0,40,0.00,,,0.00,,2013-03-10 21:31:00,
2013-03-10 14:41:00,70.0,45.0,30.21,WSW,258,0.0,6.0,40,0.00,,,0.00,,2013-03-10 21:41:00,
2013-03-10 14:52:00,70.0,45.0,30.21,WSW,258,0.0,6.0,40,0.00,,,0.00,,2013-03-10 21:52:00,
2013-03-10 15:01:00,72.0,35.0,30.19,WSW,248,1.0,5.0,26,0.00,,,0.00,,2013-03-10 22:01:00,
2013-03-10 15:11:00,72.0,35.0,30.19,WSW,248,1.0,5.0,26,0.00,,,0.00,,2013-03-10 22:11:00,
2013-03-10 15:21:00,72.0,35.0,30.19,West,264,3.0,6.0,26,0.00,,,0.00,,2013-03-10 22:21:00,
2013-03-10 15:32:00,72.0,34.0,30.19,West,259,0.0,5.0,25,0.00,,,0.00,,2013-03-10 22:32:00,
2013-03-10 15:42:00,72.0,34.0,30.19,West,259,0.0,5.0,25,0.00,,,0.00,,2013-03-10 22:42:00,
2013-03-10 15:52:00,72.0,34.0,30.19,West,259,0.0,5.0,25,0.00,,,0.00,,2013-03-10 22:52:00,
2013-03-10 16:11:00,72.0,32.0,30.20,West,278,1.0,5.0,23,0.00,,,0.00,,2013-03-10 23:11:00,
2013-03-10 16:21:00,72.0,32.0,30.20,West,278,1.0,5.0,23,0.00,,,0.00,,2013-03-10 23:21:00,
2013-03-10 16:32:00,72.0,31.0,30.19,West,281,1.0,7.0,22,0.00,,,0.00,,2013-03-10 23:32:00,
2013-03-10 16:41:00,72.0,31.0,30.19,West,281,1.0,7.0,22,0.00,,,0.00,,2013-03-10 23:41:00,
2013-03-10 16:51:00,71.0,31.0,30.18,WSW,249,1.0,6.0,23,0.00,,,0.00,,2013-03-10 23:51:00,
2013-03-10 17:01:00,72.0,32.0,30.18,West,278,0.0,5.0,23,0.00,,,0.00,,2013-03-11 00:01:00,
2013-03-10 17:12:00,72.0,32.0,30.18,West,278,0.0,5.0,23,0.00,,,0.00,,2013-03-11 00:12:00,
2013-03-10 17:21:00,72.0,32.0,30.18,West,278,0.0,5.0,23,0.00,,,0.00,,2013-03-11 00:21:00,
2013-03-10 17:32:00,72.0,31.0,30.17,WSW,245,1.0,5.0,22,0.00,,,0.00,,2013-03-11 00:32:00,
2013-03-10 17:42:00,72.0,31.0,30.17,WSW,245,1.0,5.0,22,0.00,,,0.00,,2013-03-11 00:42:00,
2013-03-10 17:51:00,70.0,28.0,30.18,SSW,194,1.0,4.0,21,0.00,,,0.00,,2013-03-11 00:51:00,
2013-03-10 18:02:00,70.0,28.0,30.17,South,190,1.0,5.0,21,0.00,,,0.00,,2013-03-11 01:02:00,
2013-03-10 18:11:00,70.0,28.0,30.17,South,190,1.0,5.0,21,0.00,,,0.00,,2013-03-11 01:11:00,
2013-03-10 18:22:00,69.0,27.0,30.18,SSW,209,0.0,3.0,21,0.00,,,0.00,,2013-03-11 01:22:00,
2013-03-10 18:31:00,68.0,34.0,30.18,South,187,0.0,4.0,28,0.00,,,0.00,,2013-03-11 01:31:00,
2013-03-10 18:40:00,63.0,41.0,30.20,SE,140,0.0,3.0,45,0.00,,,0.00,,2013-03-11 01:40:00,
2013-03-10 18:42:00,68.0,34.0,30.18,South,187,0.0,4.0,28,0.00,,,0.00,,2013-03-11 01:42:00,
2013-03-10 18:52:00,64.0,39.0,30.19,South,172,0.0,3.0,40,0.00,,,0.00,,2013-03-11 01:52:00,
2013-03-10 19:01:00,63.0,41.0,30.20,SE,140,0.0,3.0,45,0.00,,,0.00,,2013-03-11 02:01:00,
2013-03-10 19:11:00,63.0,41.0,30.20,SE,140,0.0,3.0,45,0.00,,,0.00,,2013-03-11 02:11:00,
2013-03-10 19:21:00,63.0,41.0,30.20,SE,140,0.0,3.0,45,0.00,,,0.00,,2013-03-11 02:21:00,
2013-03-10 19:32:00,63.0,41.0,30.20,SE,140,0.0,3.0,45,0.00,,,0.00,,2013-03-11 02:32:00,
2013-03-10 20:02:00,53.0,41.0,30.19,SSE,149,0.0,0.0,64,0.00,,,0.00,,2013-03-11 03:02:00,
2013-03-10 20:12:00,53.0,41.0,30.19,SSE,149,0.0,0.0,64,0.00,,,0.00,,2013-03-11 03:12:00,
2013-03-10 20:22:00,53.0,42.0,30.19,SSE,149,0.0,0.0,66,0.00,,,0.00,,2013-03-11 03:22:00,
2013-03-10 20:32:00,51.0,41.0,30.19,SSE,149,0.0,0.0,69,0.00,,,0.00,,2013-03-11 03:32:00,
2013-03-10 20:42:00,51.0,41.0,30.19,SSE,149,0.0,0.0,69,0.00,,,0.00,,2013-03-11 03:42:00,
2013-03-10 20:51:00,51.0,41.0,30.19,SSE,149,0.0,0.0,69,0.00,,,0.00,,2013-03-11 03:51:00,
2013-03-10 21:01:00,50.0,41.0,30.20,SSE,149,0.0,0.0,71,0.00,,,0.00,,2013-03-11 04:01:00,
2013-03-10 21:11:00,50.0,41.0,30.20,SSE,149,0.0,0.0,71,0.00,,,0.00,,2013-03-11 04:11:00,
2013-03-10 21:21:00,48.0,40.0,30.20,SSE,149,0.0,0.0,74,0.00,,,0.00,,2013-03-11 04:21:00,
2013-03-10 21:32:00,48.0,41.0,30.21,SSE,149,0.0,0.0,76,0.00,,,0.00,,2013-03-11 04:32:00,
2013-03-10 21:42:00,48.0,41.0,30.21,SSE,149,0.0,0.0,76,0.00,,,0.00,,2013-03-11 04:42:00,
2013-03-10 21:53:00,47.0,41.0,30.20,SSE,149,0.0,0.0,78,0.00,,,0.00,,2013-03-11 04:53:00,
2013-03-10 22:01:00,46.0,40.0,30.21,SSE,149,0.0,0.0,79,0.00,,,0.00,,2013-03-11 05:01:00,
2013-03-10 22:11:00,46.0,40.0,30.21,SSE,149,0.0,0.0,79,0.00,,,0.00,,2013-03-11 05:11:00,
2013-03-10 22:22:00,46.0,40.0,30.20,SSE,149,0.0,0.0,79,0.00,,,0.00,,2013-03-11 05:22:00,
2013-03-10 22:31:00,45.0,39.0,30.20,SSE,149,0.0,0.0,80,0.00,,,0.00,,2013-03-11 05:31:00,
2013-03-10 22:42:00,45.0,39.0,30.20,SSE,149,0.0,0.0,80,0.00,,,0.00,,2013-03-11 05:42:00,
2013-03-10 22:51:00,45.0,39.0,30.20,SSE,149,0.0,0.0,80,0.00,,,0.00,,2013-03-11 05:51:00,
2013-03-10 23:01:00,44.0,39.0,30.22,SSE,149,0.0,0.0,82,0.00,,,0.00,,2013-03-11 06:01:00,
2013-03-10 23:11:00,44.0,39.0,30.22,SSE,149,0.0,0.0,82,0.00,,,0.00,,2013-03-11 06:11:00,
2013-03-10 23:21:00,44.0,39.0,30.22,SSE,149,0.0,0.0,82,0.00,,,0.00,,2013-03-11 06:21:00,
2013-03-10 23:32:00,43.0,38.0,30.21,SSE,149,0.0,0.0,84,0.00,,,0.00,,2013-03-11 06:32:00,
2013-03-10 23:42:00,43.0,38.0,30.21,SSE,149,0.0,0.0,84,0.00,,,0.00,,2013-03-11 06:42:00,
2013-03-10 23:53:00,43.0,39.0,30.21,SSE,149,0.0,0.0,85,0.00,,,0.00,,2013-03-11 06:53:00,